Time;durP1;ratioP1;P1;durP2;ratioP2;P2;SDS_P1;SDS_P2;PMS_P1;PMS_P2;Temp;Humidity;BMP_temperature;BMP_pressure;BME280_temperature;BME280_humidity;BME280_pressure;Samples;Min_cycle;Max_cycle;Signal;HPM_P1;HPM_P2
2021/01/26 00:01:06;;;;;;;;;;;;;;;5.10;60.18;99948.84;1867311;77;20150;-41
2021/01/26 00:03:34;;;;;;;;;;;;;;;5.11;60.35;99939.31;1832813;78;20504;-39
2021/01/26 00:06:03;;;;;;;;;;;;;;;5.10;60.36;99938.88;1832578;78;20156;-41
2021/01/26 00:08:32;;;;;;;;;;;;;;;5.06;60.48;99939.75;1832844;78;20141;-39
2021/01/26 00:11:01;;;;;;;;;;;;;;;5.02;60.73;99925.07;1832698;78;20125;-38
2021/01/26 00:13:28;;;;;;;;;;;;;;;4.99;60.91;99926.41;1821020;78;20232;-39
2021/01/26 00:15:57;;;;;;;;;;;;;;;4.96;61.11;99925.98;1832784;78;20160;-39
2021/01/26 00:18:25;;;;;;;;;;;;;;;4.95;61.34;99912.99;1832914;78;20145;-39
2021/01/26 00:20:52;;;;;;;;;;;;;;;4.94;61.29;99914.72;1832589;78;20125;-38
2021/01/26 00:23:20;;;;;;;;;;;;;;;4.97;61.22;99907.36;1832762;78;20133;-38
2021/01/26 00:25:48;;;;;;;;;;;;;;;4.97;61.45;99899.13;1832758;78;20172;-39
2021/01/26 00:28:16;;;;;;;;;;;;;;;4.92;61.64;99903.51;1832594;78;20152;-39
2021/01/26 00:30:43;;;;;;;;;;;;;;;4.88;61.77;99892.69;1832799;78;20449;-39
2021/01/26 00:33:14;;;;;;;;;;;;;;;4.85;62.06;99886.67;1832879;78;20132;-38
2021/01/26 00:35:41;;;;;;;;;;;;;;;4.79;62.52;99878.02;1832575;78;20137;-39
2021/01/26 00:38:09;;;;;;;;;;;;;;;4.72;63.10;99880.70;1832687;78;20231;-38
2021/01/26 00:40:38;;;;;;;;;;;;;;;4.64;63.63;99882.47;1832799;78;20141;-40
2021/01/26 00:43:06;;;;;;;;;;;;;;;4.58;64.20;99873.42;1832601;78;20137;-38
2021/01/26 00:45:34;;;;;;;;;;;;;;;4.53;65.04;99873.89;1832754;78;20192;-39
2021/01/26 00:48:03;;;;;;;;;;;;;;;4.45;65.73;99867.44;1832593;78;20133;-39
2021/01/26 00:50:32;;;;;;;;;;;;;;;4.35;66.63;99863.15;1832757;78;20382;-38
2021/01/26 00:53:00;;;;;;;;;;;;;;;4.26;67.56;99865.38;1832785;78;20223;-38
2021/01/26 00:55:30;;;;;;;;;;;;;;;4.16;68.23;99861.52;1832275;78;20164;-38
2021/01/26 00:57:58;;;;;;;;;;;;;;;4.04;68.93;99859.84;1832804;78;20198;-39
2021/01/26 01:00:36;;;;;;;;;;;;;;;3.97;69.56;99855.11;1832566;78;20376;-39
2021/01/26 01:03:08;;;;;;;;;;;;;;;3.90;70.65;99853.40;1832663;78;20200;-39
2021/01/26 01:05:36;;;;;;;;;;;;;;;3.81;71.82;99847.36;1832540;78;20136;-39
2021/01/26 01:08:05;;;;;;;;;;;;;;;3.73;72.80;99853.89;1832792;78;20449;-40
2021/01/26 01:10:39;;;;;;;;;;;;;;;3.64;74.07;99859.09;1832448;78;20129;-39
2021/01/26 01:13:05;;;;;;;;;;;;;;;3.56;75.43;99860.40;1832849;78;20418;-40
2021/01/26 01:15:34;;;;;;;;;;;;;;;3.49;76.71;99856.52;1832597;78;20179;-39
2021/01/26 01:18:02;;;;;;;;;;;;;;;3.42;77.94;99852.21;1832555;78;20153;-40
2021/01/26 01:20:30;;;;;;;;;;;;;;;3.38;79.17;99841.00;1832710;78;20133;-40
2021/01/26 01:22:59;;;;;;;;;;;;;;;3.34;80.26;99845.77;1832963;78;20191;-40
2021/01/26 01:25:26;;;;;;;;;;;;;;;3.30;81.03;99854.82;1832525;78;20129;-38
2021/01/26 01:27:54;;;;;;;;;;;;;;;3.24;81.64;99854.40;1832559;78;20172;-38
2021/01/26 01:30:27;;;;;;;;;;;;;;;3.19;82.18;99858.73;1832538;78;20176;-41
2021/01/26 01:32:56;;;;;;;;;;;;;;;3.15;82.96;99855.25;1832611;78;20176;-40
2021/01/26 01:35:23;;;;;;;;;;;;;;;3.12;83.52;99872.11;1832616;78;20453;-39
2021/01/26 01:37:51;;;;;;;;;;;;;;;3.07;83.99;99876.86;1832789;78;20248;-38
2021/01/26 01:40:22;;;;;;;;;;;;;;;3.01;84.79;99867.37;1832518;78;20140;-38
2021/01/26 01:42:50;;;;;;;;;;;;;;;2.98;85.38;99874.25;1832797;78;20168;-39
2021/01/26 01:45:20;;;;;;;;;;;;;;;2.93;85.98;99879.87;1832699;78;20766;-38
2021/01/26 01:47:53;;;;;;;;;;;;;;;2.89;86.96;99884.63;1832769;78;20180;-38
2021/01/26 01:50:34;;;;;;;;;;;;;;;2.84;87.85;99894.95;1831761;78;20402;-38
2021/01/26 01:53:16;;;;;;;;;;;;;;;2.80;88.53;99902.28;1832692;78;20497;-39
2021/01/26 01:55:46;;;;;;;;;;;;;;;2.75;89.39;99911.34;1832499;78;20180;-38
2021/01/26 01:58:17;;;;;;;;;;;;;;;2.71;90.69;99922.53;1832759;78;20164;-39
2021/01/26 02:00:51;;;;;;;;;;;;;;;2.62;91.41;99914.77;1832435;78;20124;-38
2021/01/26 02:03:25;;;;;;;;;;;;;;;2.56;92.04;99921.64;1832785;78;20411;-38
2021/01/26 02:05:54;;;;;;;;;;;;;;;2.49;92.76;99926.36;1832571;78;20132;-39
2021/01/26 02:08:25;;;;;;;;;;;;;;;2.44;93.49;99917.27;1832824;78;20144;-38
2021/01/26 02:10:53;;;;;;;;;;;;;;;2.40;94.45;99898.30;1832692;78;20196;-39
2021/01/26 02:13:20;;;;;;;;;;;;;;;2.38;95.12;99890.09;1832640;78;20144;-39
2021/01/26 02:15:50;;;;;;;;;;;;;;;2.36;95.83;99903.47;1832672;78;20485;-39
2021/01/26 02:18:57;;;;;;;;;;;;;;;2.31;96.38;99874.12;1832561;78;20192;-38
2021/01/26 02:21:48;;;;;;;;;;;;;;;2.31;96.91;99881.88;1832706;78;20180;-40
2021/01/26 02:27:05;;;;;;;;;;;;;;;2.36;97.94;99881.03;1927924;74;20138;-38
2021/01/26 02:29:56;;;;;;;;;;;;;;;2.32;98.23;99890.94;1881051;75;20168;-38
2021/01/26 02:32:27;;;;;;;;;;;;;;;2.34;98.47;99885.36;1897434;75;20183;-39
2021/01/26 02:35:15;;;;;;;;;;;;;;;2.35;98.89;99895.27;1903015;75;20132;-39
2021/01/26 02:37:55;;;;;;;;;;;;;;;2.38;99.26;99903.02;1903130;75;20387;-39
2021/01/26 02:40:38;;;;;;;;;;;;;;;2.40;99.66;99907.36;1902960;75;20124;-40
2021/01/26 02:43:25;;;;;;;;;;;;;;;2.45;100.00;99904.77;1903106;75;20121;-41
2021/01/26 02:46:06;;;;;;;;;;;;;;;2.52;100.00;99917.30;1902934;75;20176;-41
2021/01/26 02:49:00;;;;;;;;;;;;;;;2.57;100.00;99920.33;1903001;75;20242;-39
2021/01/26 02:51:34;;;;;;;;;;;;;;;2.62;100.00;99922.52;1903111;75;20440;-40
2021/01/26 02:54:14;;;;;;;;;;;;;;;2.65;100.00;99919.93;1903062;75;20144;-40
2021/01/26 02:56:45;;;;;;;;;;;;;;;2.70;100.00;99923.38;1903242;75;20132;-40
2021/01/26 02:59:36;;;;;;;;;;;;;;;2.73;100.00;99923.41;1903172;75;20164;-39
2021/01/26 03:02:17;;;;;;;;;;;;;;;2.76;100.00;99932.88;1902994;75;20176;-39
2021/01/26 03:05:04;;;;;;;;;;;;;;;2.79;100.00;99939.37;1902850;75;20402;-39
2021/01/26 03:07:35;;;;;;;;;;;;;;;2.80;100.00;99944.99;1878382;75;20160;-40
2021/01/26 03:10:10;;;;;;;;;;;;;;;2.83;100.00;99947.57;1903175;75;20144;-38
2021/01/26 03:12:43;;;;;;;;;;;;;;;2.83;100.00;99957.06;1902589;75;20156;-39
2021/01/26 03:15:18;;;;;;;;;;;;;;;2.82;100.00;99956.66;1903241;75;20140;-40
2021/01/26 03:17:50;;;;;;;;;;;;;;;2.85;100.00;99969.16;1903158;75;20378;-39
2021/01/26 03:20:30;;;;;;;;;;;;;;;2.86;100.00;99962.26;1903144;75;20266;-39
2021/01/26 03:23:00;;;;;;;;;;;;;;;2.87;100.00;99938.97;1903010;75;20219;-39
2021/01/26 03:25:28;;;;;;;;;;;;;;;2.96;100.00;99961.41;1869678;75;20184;-40
2021/01/26 03:27:58;;;;;;;;;;;;;;;3.03;100.00;99979.98;1903223;75;20382;-40
2021/01/26 03:30:28;;;;;;;;;;;;;;;3.10;100.00;99975.25;1902946;75;20140;-40
2021/01/26 03:33:02;;;;;;;;;;;;;;;3.16;100.00;99981.73;1901044;75;20142;-41
2021/01/26 03:35:30;;;;;;;;;;;;;;;3.20;100.00;99992.12;1891464;75;20136;-40
2021/01/26 03:38:01;;;;;;;;;;;;;;;3.26;100.00;99990.39;1867272;77;20175;-40
2021/01/26 03:40:28;;;;;;;;;;;;;;;3.32;100.00;100002.92;1872489;75;20453;-40
2021/01/26 03:42:56;;;;;;;;;;;;;;;3.39;100.00;100007.25;1902497;75;20152;-40
2021/01/26 03:45:23;;;;;;;;;;;;;;;3.39;100.00;99994.30;1902300;75;20179;-40
2021/01/26 03:48:17;;;;;;;;;;;;;;;3.39;100.00;99990.41;1902479;75;20120;-39
2021/01/26 03:51:06;;;;;;;;;;;;;;;3.36;100.00;99981.75;1902268;75;20386;-40
2021/01/26 03:53:58;;;;;;;;;;;;;;;3.29;100.00;99982.61;1902368;75;20212;-40
2021/01/26 03:56:45;;;;;;;;;;;;;;;3.24;100.00;99981.75;1902430;75;20175;-40
2021/01/26 03:59:19;;;;;;;;;;;;;;;3.17;100.00;99991.23;1902593;75;20168;-41
2021/01/26 04:01:59;;;;;;;;;;;;;;;3.11;100.00;100002.45;1902388;75;20132;-39
2021/01/26 04:04:42;;;;;;;;;;;;;;;3.11;100.00;100008.05;1902426;75;20195;-40
2021/01/26 04:07:16;;;;;;;;;;;;;;;3.07;100.00;100021.44;1902718;75;20183;-39
2021/01/26 04:09:50;;;;;;;;;;;;;;;3.09;100.00;100027.89;1894883;75;20163;-39
2021/01/26 04:12:21;;;;;;;;;;;;;;;3.09;100.00;100030.48;1902377;75;20275;-40
2021/01/26 04:15:03;;;;;;;;;;;;;;;3.08;100.00;100032.67;1899134;75;20148;-39
2021/01/26 04:17:33;;;;;;;;;;;;;;;3.10;100.00;100025.75;1902696;75;20136;-40
2021/01/26 04:20:07;;;;;;;;;;;;;;;3.14;100.00;100032.25;1878848;75;20140;-41
2021/01/26 04:22:34;;;;;;;;;;;;;;;3.17;100.00;100028.36;1867066;77;20196;-40
2021/01/26 04:25:23;;;;;;;;;;;;;;;3.18;100.00;100044.34;1867104;77;20133;-40
2021/01/26 04:27:50;;;;;;;;;;;;;;;3.19;100.00;100045.20;1867309;77;20271;-40
2021/01/26 04:30:19;;;;;;;;;;;;;;;3.28;100.00;100044.37;1867142;76;20188;-39
2021/01/26 04:32:50;;;;;;;;;;;;;;;3.37;100.00;100047.83;1867114;77;20120;-39
2021/01/26 04:35:20;;;;;;;;;;;;;;;3.49;100.00;100058.63;1864459;77;20231;-39
2021/01/26 04:37:48;;;;;;;;;;;;;;;3.52;100.00;100057.36;1867159;77;20184;-42
2021/01/26 04:40:17;;;;;;;;;;;;;;;3.55;100.00;100073.77;1867486;75;20134;-40
2021/01/26 04:42:46;;;;;;;;;;;;;;;3.58;100.00;100075.08;1866196;77;20170;-42
2021/01/26 04:45:26;;;;;;;;;;;;;;;3.64;100.00;100071.63;1869500;75;20148;-41
2021/01/26 04:47:57;;;;;;;;;;;;;;;3.73;100.00;100082.45;1873909;75;20185;-41
2021/01/26 04:50:51;;;;;;;;;;;;;;;3.80;100.00;100088.94;1899559;75;20183;-41
2021/01/26 04:53:46;;;;;;;;;;;;;;;3.89;100.00;100089.36;1902507;75;20170;-41
2021/01/26 04:56:26;;;;;;;;;;;;;;;3.95;100.00;100095.41;1876532;75;20265;-41
2021/01/26 04:59:10;;;;;;;;;;;;;;;3.98;100.00;100110.12;1872735;76;20162;-42
2021/01/26 05:01:44;;;;;;;;;;;;;;;4.00;100.00;100108.40;1866881;77;20273;-41
2021/01/26 05:04:14;;;;;;;;;;;;;;;4.07;100.00;100120.94;1868971;75;20288;-40
2021/01/26 05:06:57;;;;;;;;;;;;;;;4.09;100.00;100117.89;1867052;77;20149;-41
2021/01/26 05:09:29;;;;;;;;;;;;;;;4.14;100.00;100124.80;1867514;75;20384;-41
2021/01/26 05:11:59;;;;;;;;;;;;;;;4.17;100.00;100133.89;1867966;75;20177;-42
2021/01/26 05:14:30;;;;;;;;;;;;;;;4.18;100.00;100133.03;1839301;76;20165;-41
2021/01/26 05:17:01;;;;;;;;;;;;;;;4.21;100.00;100135.61;1867173;77;20281;-42
2021/01/26 05:19:41;;;;;;;;;;;;;;;4.22;100.00;100136.05;1867504;77;20380;-41
2021/01/26 05:22:14;;;;;;;;;;;;;;;4.23;100.00;100135.19;1866452;77;20162;-44
2021/01/26 05:24:46;;;;;;;;;;;;;;;4.23;100.00;100135.63;1867913;75;20226;-41
2021/01/26 05:27:13;;;;;;;;;;;;;;;4.20;99.83;100148.14;1868958;76;20477;-43
2021/01/26 05:29:42;;;;;;;;;;;;;;;4.17;99.27;100156.38;1871237;75;20285;-42
2021/01/26 05:32:09;;;;;;;;;;;;;;;4.13;98.85;100167.20;1872175;75;20420;-43
2021/01/26 05:34:39;;;;;;;;;;;;;;;4.10;98.58;100162.42;1869521;75;20436;-42
2021/01/26 05:37:08;;;;;;;;;;;;;;;4.07;98.36;100163.27;1870908;75;20188;-43
2021/01/26 05:39:48;;;;;;;;;;;;;;;4.08;98.12;100164.14;1870390;75;20162;-43
2021/01/26 05:42:16;;;;;;;;;;;;;;;4.05;97.99;100171.50;1875198;75;20168;-41
2021/01/26 05:44:55;;;;;;;;;;;;;;;4.04;97.89;100174.95;1870430;75;20496;-44
2021/01/26 05:47:26;;;;;;;;;;;;;;;4.05;97.81;100183.17;1872604;75;20302;-42
2021/01/26 05:49:54;;;;;;;;;;;;;;;4.04;97.65;100193.11;1870849;75;20269;-43
2021/01/26 05:52:24;;;;;;;;;;;;;;;4.08;97.50;100192.67;1869845;75;20180;-47
2021/01/26 05:54:53;;;;;;;;;;;;;;;4.09;97.24;100201.76;1874207;75;20395;-42
2021/01/26 05:57:27;;;;;;;;;;;;;;;4.12;96.93;100219.07;1868734;75;20144;-42
2021/01/26 06:00:10;;;;;;;;;;;;;;;4.14;96.68;100215.59;1867853;75;20561;-43
2021/01/26 06:02:39;;;;;;;;;;;;;;;4.14;96.43;100225.97;1868302;75;20194;-43
2021/01/26 06:05:10;;;;;;;;;;;;;;;4.17;96.16;100232.48;1871450;75;20199;-44
2021/01/26 06:07:37;;;;;;;;;;;;;;;4.21;95.95;100233.33;1866532;75;20476;-43
2021/01/26 06:10:17;;;;;;;;;;;;;;;4.21;95.66;100236.80;1879520;75;20285;-44
2021/01/26 06:12:53;;;;;;;;;;;;;;;4.21;95.54;100238.52;1866726;75;20300;-43
2021/01/26 06:15:24;;;;;;;;;;;;;;;4.22;95.50;100235.94;1868740;75;20182;-43
2021/01/26 06:17:58;;;;;;;;;;;;;;;4.27;95.42;100235.94;1871918;75;20244;-42
2021/01/26 06:20:28;;;;;;;;;;;;;;;4.33;95.20;100242.45;1808355;77;20196;-41
2021/01/26 06:22:56;;;;;;;;;;;;;;;4.37;95.03;100241.16;1845289;77;20233;-40
2021/01/26 06:27:19;;;;;;;;;;;;;;;4.45;94.77;100249.38;1890724;74;20294;-44
2021/01/26 06:30:09;;;;;;;;;;;;;;;4.45;94.58;100255.88;1810726;75;20191;-42
2021/01/26 06:33:03;;;;;;;;;;;;;;;4.48;94.30;100269.70;1868526;75;20178;-45
2021/01/26 06:35:40;;;;;;;;;;;;;;;4.53;93.97;100277.52;1877314;75;20369;-42
2021/01/26 06:38:21;;;;;;;;;;;;;;;4.56;93.62;100282.27;1869654;75;20412;-42
2021/01/26 06:41:07;;;;;;;;;;;;;;;4.60;93.40;100283.12;1874354;75;20186;-42
2021/01/26 06:43:57;;;;;;;;;;;;;;;4.61;93.31;100275.34;1874295;75;20198;-40
2021/01/26 06:46:40;;;;;;;;;;;;;;;4.66;93.17;100283.98;1878416;75;20260;-41
2021/01/26 06:49:30;;;;;;;;;;;;;;;4.76;92.96;100275.35;1871984;75;20134;-41
2021/01/26 06:52:11;;;;;;;;;;;;;;;4.91;92.58;100305.66;1871775;75;20184;-43
2021/01/26 06:54:56;;;;;;;;;;;;;;;5.07;92.18;100309.97;1843231;75;20156;-42
2021/01/26 06:57:45;;;;;;;;;;;;;;;5.19;91.77;100312.98;1878069;75;20186;-51
2021/01/26 07:00:19;;;;;;;;;;;;;;;5.27;91.13;100323.38;1887581;75;20185;-42
2021/01/26 07:03:07;;;;;;;;;;;;;;;5.32;90.60;100324.22;1875106;75;20395;-44
2021/01/26 07:05:41;;;;;;;;;;;;;;;5.31;90.04;100322.09;1881694;75;20162;-43
2021/01/26 07:08:16;;;;;;;;;;;;;;;5.30;89.84;100310.38;1841183;75;20181;-41
2021/01/26 07:11:06;;;;;;;;;;;;;;;5.28;89.64;100329.88;1874923;75;20166;-41
2021/01/26 07:13:49;;;;;;;;;;;;;;;5.34;89.52;100331.59;1868400;75;20273;-41
2021/01/26 07:16:36;;;;;;;;;;;;;;;5.43;89.02;100339.39;1873033;75;20150;-43
2021/01/26 07:19:27;;;;;;;;;;;;;;;5.54;88.70;100344.12;1869367;75;20154;-43
2021/01/26 07:22:20;;;;;;;;;;;;;;;5.68;88.06;100350.17;1877425;75;20972;-44
2021/01/26 07:25:01;;;;;;;;;;;;;;;5.81;87.28;100349.70;1826183;75;20190;-43
2021/01/26 07:27:42;;;;;;;;;;;;;;;5.89;86.78;100344.94;1858813;75;20395;-44
2021/01/26 07:30:18;;;;;;;;;;;;;;;5.87;86.07;100357.08;1897756;75;20214;-44
2021/01/26 07:33:04;;;;;;;;;;;;;;;5.84;85.53;100358.81;1874847;75;20141;-44
2021/01/26 07:35:39;;;;;;;;;;;;;;;5.85;85.54;100366.58;1874399;75;20186;-42
2021/01/26 07:38:23;;;;;;;;;;;;;;;5.92;85.16;100369.63;1877095;75;20234;-43
2021/01/26 07:40:57;;;;;;;;;;;;;;;5.89;84.71;100390.91;1872239;75;20453;-43
2021/01/26 07:43:41;;;;;;;;;;;;;;;5.82;84.76;100396.95;1876105;75;20132;-44
2021/01/26 07:46:27;;;;;;;;;;;;;;;5.78;85.03;100396.08;1874248;75;20174;-45
2021/01/26 07:49:21;;;;;;;;;;;;;;;5.68;85.06;100399.58;1869246;75;20160;-43
2021/01/26 07:51:53;;;;;;;;;;;;;;;5.61;85.60;100403.92;1830837;77;20227;-44
2021/01/26 07:54:52;;;;;;;;;;;;;;;5.54;85.78;100407.40;1809718;78;20624;-45
2021/01/26 07:57:19;;;;;;;;;;;;;;;5.57;86.23;100404.81;1824259;78;20310;-43
2021/01/26 07:59:54;;;;;;;;;;;;;;;5.59;85.78;100415.19;1809904;78;20232;-50
2021/01/26 08:02:26;;;;;;;;;;;;;;;5.56;85.79;100436.87;1826462;77;20280;-44
2021/01/26 08:04:54;;;;;;;;;;;;;;;5.52;85.93;100446.83;1811445;78;20190;-43
2021/01/26 08:07:28;;;;;;;;;;;;;;;5.52;86.01;100443.36;1834858;77;20244;-43
2021/01/26 08:10:00;;;;;;;;;;;;;;;5.49;86.22;100439.05;1846283;77;20172;-45
2021/01/26 08:12:34;;;;;;;;;;;;;;;5.49;85.93;100435.58;1834873;77;20260;-43
2021/01/26 08:15:24;;;;;;;;;;;;;;;5.45;85.87;100435.99;1835327;77;20557;-44
2021/01/26 08:17:54;;;;;;;;;;;;;;;5.42;85.85;100445.54;1836449;77;20138;-43
2021/01/26 08:20:31;;;;;;;;;;;;;;;5.39;85.84;100460.69;1837103;77;20843;-44
2021/01/26 08:23:06;;;;;;;;;;;;;;;5.38;86.04;100463.31;1830674;77;20282;-44
2021/01/26 08:25:41;;;;;;;;;;;;;;;5.37;86.31;100466.34;1829672;77;20890;-42
2021/01/26 08:28:11;;;;;;;;;;;;;;;5.38;86.46;100461.55;1825805;77;20478;-44
2021/01/26 08:30:48;;;;;;;;;;;;;;;5.42;86.35;100456.80;1831256;77;20461;-43
2021/01/26 08:33:19;;;;;;;;;;;;;;;5.52;85.90;100465.03;1836370;77;20174;-42
2021/01/26 08:36:09;;;;;;;;;;;;;;;5.80;85.64;100458.08;1839031;77;20489;-43
2021/01/26 08:38:52;;;;;;;;;;;;;;;6.11;84.74;100434.63;1801883;78;20217;-41
2021/01/26 08:41:42;;;;;;;;;;;;;;;6.25;83.35;100454.54;1814088;78;20224;-43
2021/01/26 08:44:22;;;;;;;;;;;;;;;6.26;82.25;100449.77;1817101;78;20191;-42
2021/01/26 08:46:52;;;;;;;;;;;;;;;6.25;81.85;100451.94;1815045;78;20131;-44
2021/01/26 08:49:32;;;;;;;;;;;;;;;6.24;81.44;100450.63;1815124;78;20180;-42
2021/01/26 08:52:22;;;;;;;;;;;;;;;6.26;81.15;100435.89;1787658;78;20208;-45
2021/01/26 08:54:52;;;;;;;;;;;;;;;6.21;80.64;100441.12;1750716;78;20202;-44
2021/01/26 08:57:33;;;;;;;;;;;;;;;6.15;80.42;100446.34;1809930;78;20704;-43
2021/01/26 09:00:20;;;;;;;;;;;;;;;6.16;80.78;100445.91;1808544;78;20123;-43
2021/01/26 09:02:51;;;;;;;;;;;;;;;6.19;80.19;100442.84;1813362;78;20288;-42
2021/01/26 09:05:47;;;;;;;;;;;;;;;6.18;80.01;100442.84;1808553;78;20194;-43
2021/01/26 09:08:36;;;;;;;;;;;;;;;6.15;80.06;100445.47;1814398;78;20192;-44
2021/01/26 09:11:05;;;;;;;;;;;;;;;6.12;80.33;100446.34;1807647;78;20198;-44
2021/01/26 09:13:34;;;;;;;;;;;;;;;6.14;80.21;100440.70;1809956;78;20218;-43
2021/01/26 09:16:14;;;;;;;;;;;;;;;6.14;80.40;100447.21;1810376;78;20173;-43
2021/01/26 09:18:42;;;;;;;;;;;;;;;6.18;80.61;100460.63;1809264;78;20774;-44
2021/01/26 09:21:14;;;;;;;;;;;;;;;6.21;80.61;100455.87;1807029;78;20184;-43
2021/01/26 09:23:42;;;;;;;;;;;;;;;6.23;80.22;100448.93;1833048;78;20244;-47
2021/01/26 09:26:14;;;;;;;;;;;;;;;6.23;79.95;100467.16;1804302;78;20197;-42
2021/01/26 09:28:43;;;;;;;;;;;;;;;6.20;79.73;100461.51;1806608;78;20202;-40
2021/01/26 09:31:11;;;;;;;;;;;;;;;6.20;79.49;100466.71;1811608;78;20195;-43
2021/01/26 09:33:40;;;;;;;;;;;;;;;6.22;79.23;100470.19;1812854;78;20241;-43
2021/01/26 09:36:12;;;;;;;;;;;;;;;6.23;79.45;100474.96;1816058;78;20199;-46
2021/01/26 09:38:41;;;;;;;;;;;;;;;6.35;79.44;100477.52;1807511;78;20186;-43
2021/01/26 09:41:21;;;;;;;;;;;;;;;6.47;79.31;100476.17;1806254;78;20452;-42
2021/01/26 09:43:50;;;;;;;;;;;;;;;6.56;78.87;100480.06;1806380;78;20135;-44
2021/01/26 09:46:25;;;;;;;;;;;;;;;6.63;78.34;100467.87;1805752;78;20201;-44
2021/01/26 09:49:15;;;;;;;;;;;;;;;6.66;77.83;100474.36;1813867;78;20216;-44
2021/01/26 09:51:48;;;;;;;;;;;;;;;6.68;77.57;100479.14;1815944;78;20528;-43
2021/01/26 09:54:22;;;;;;;;;;;;;;;6.70;77.37;100479.53;1794767;78;20150;-43
2021/01/26 09:56:53;;;;;;;;;;;;;;;6.72;77.32;100487.35;1790492;78;20265;-47
2021/01/26 09:59:22;;;;;;;;;;;;;;;6.76;77.55;100477.37;1760408;78;20657;-45
2021/01/26 10:01:50;;;;;;;;;;;;;;;6.85;77.39;100465.58;1806669;78;20229;-43
2021/01/26 10:04:21;;;;;;;;;;;;;;;6.93;76.87;100469.45;1810801;78;20151;-44
2021/01/26 10:06:51;;;;;;;;;;;;;;;7.00;76.32;100481.14;1793117;78;20194;-42
2021/01/26 10:09:25;;;;;;;;;;;;;;;7.02;76.06;100476.77;1809887;78;20191;-42
2021/01/26 10:11:53;;;;;;;;;;;;;;;7.03;75.73;100477.19;1813392;78;20464;-44
2021/01/26 10:14:24;;;;;;;;;;;;;;;7.04;75.23;100463.73;1805525;78;20207;-43
2021/01/26 10:16:54;;;;;;;;;;;;;;;6.97;75.20;100456.38;1811130;78;20282;-44
2021/01/26 10:19:27;;;;;;;;;;;;;;;6.96;75.56;100449.44;1786663;78;20204;-44
2021/01/26 10:21:57;;;;;;;;;;;;;;;6.96;75.65;100453.34;1807100;78;20168;-43
2021/01/26 10:26:51;;;;;;;;;;;;;;;6.95;75.66;100442.95;1888771;74;20559;-44
2021/01/26 10:29:22;;;;;;;;;;;;;;;6.87;75.06;100440.82;1858564;75;20140;-44
2021/01/26 10:31:55;;;;;;;;;;;;;;;6.79;75.26;100440.42;1874885;75;20506;-43
2021/01/26 10:34:41;;;;;;;;;;;;;;;6.74;75.05;100438.72;1869847;75;20332;-43
2021/01/26 10:37:24;;;;;;;;;;;;;;;6.66;73.81;100452.22;1878465;75;20134;-43
2021/01/26 10:40:13;;;;;;;;;;;;;;;6.57;73.17;100448.34;1870929;75;20174;-43
2021/01/26 10:42:45;;;;;;;;;;;;;;;6.49;73.62;100456.21;1871242;75;20200;-44
2021/01/26 10:45:13;;;;;;;;;;;;;;;6.51;74.46;100451.84;1876241;75;20178;-44
2021/01/26 10:47:43;;;;;;;;;;;;;;;6.55;75.09;100448.38;1874663;75;20189;-44
2021/01/26 10:50:15;;;;;;;;;;;;;;;6.60;75.29;100450.95;1873085;75;20192;-44
2021/01/26 10:52:48;;;;;;;;;;;;;;;6.62;75.34;100454.42;1870659;75;20198;-44
2021/01/26 10:55:21;;;;;;;;;;;;;;;6.62;75.69;100452.68;1872152;75;20273;-43
2021/01/26 10:57:52;;;;;;;;;;;;;;;6.63;75.93;100451.78;1871442;75;20232;-44
2021/01/26 11:00:23;;;;;;;;;;;;;;;6.63;75.48;100443.97;1789405;77;20461;-43
2021/01/26 11:02:54;;;;;;;;;;;;;;;6.62;75.50;100453.12;1751445;79;20329;-43
2021/01/26 11:05:25;;;;;;;;;;;;;;;6.59;75.64;100440.96;1808781;78;20239;-43
2021/01/26 11:07:53;;;;;;;;;;;;;;;6.58;75.95;100432.72;1812076;78;20549;-44
2021/01/26 11:10:23;;;;;;;;;;;;;;;6.59;76.13;100429.67;1811997;78;20552;-44
2021/01/26 11:12:51;;;;;;;;;;;;;;;6.60;76.40;100433.58;1806934;78;20222;-44
2021/01/26 11:15:26;;;;;;;;;;;;;;;6.62;76.55;100427.07;1810956;78;20479;-43
2021/01/26 11:17:49;;;;;;;;;;;;;;;6.63;76.59;100423.59;1810512;78;20236;-44
2021/01/26 11:20:17;;;;;;;;;;;;;;;6.64;76.50;100421.39;1808748;78;20185;-43
2021/01/26 11:22:45;;;;;;;;;;;;;;;6.63;76.60;100422.30;1809657;78;20168;-43
2021/01/26 11:25:13;;;;;;;;;;;;;;;6.63;76.70;100414.02;1808000;78;20166;-44
2021/01/26 11:27:42;;;;;;;;;;;;;;;6.62;76.68;100405.80;1836117;76;20199;-44
2021/01/26 11:30:12;;;;;;;;;;;;;;;6.63;76.71;100394.95;1846582;77;20310;-42
2021/01/26 11:32:41;;;;;;;;;;;;;;;6.61;76.68;100386.27;1823949;77;20263;-42
2021/01/26 11:35:10;;;;;;;;;;;;;;;6.63;76.82;100385.83;1816190;78;20275;-43
2021/01/26 11:37:38;;;;;;;;;;;;;;;6.65;76.91;100389.27;1802476;78;20188;-43
2021/01/26 11:40:07;;;;;;;;;;;;;;;6.69;76.99;100393.17;1830288;77;20469;-44
2021/01/26 11:42:35;;;;;;;;;;;;;;;6.72;76.84;100389.23;1837335;77;20119;-45
2021/01/26 11:45:06;;;;;;;;;;;;;;;6.78;77.00;100389.19;1828874;77;20186;-43
2021/01/26 11:47:37;;;;;;;;;;;;;;;6.82;77.01;100389.18;1818369;77;20212;-44
2021/01/26 11:50:11;;;;;;;;;;;;;;;6.83;77.13;100382.63;1770073;78;20259;-47
2021/01/26 11:52:39;;;;;;;;;;;;;;;6.83;76.92;100383.94;1794294;79;20274;-44
2021/01/26 11:55:12;;;;;;;;;;;;;;;6.87;76.94;100379.59;1796427;79;20230;-43
2021/01/26 11:57:42;;;;;;;;;;;;;;;6.88;76.70;100391.31;1808670;78;20506;-43
2021/01/26 12:00:11;;;;;;;;;;;;;;;6.91;76.60;100390.41;1830635;77;20206;-44
2021/01/26 12:02:42;;;;;;;;;;;;;;;6.92;76.64;100387.80;1829927;77;20474;-43
2021/01/26 12:05:12;;;;;;;;;;;;;;;6.96;76.64;100399.92;1796557;77;20150;-43
2021/01/26 12:07:41;;;;;;;;;;;;;;;6.98;76.84;100396.00;1834069;77;20526;-43
2021/01/26 12:10:11;;;;;;;;;;;;;;;6.96;77.14;100398.61;1788810;77;20154;-45
2021/01/26 12:12:39;;;;;;;;;;;;;;;6.94;77.36;100406.03;1821045;78;20193;-42
2021/01/26 12:15:07;;;;;;;;;;;;;;;6.92;77.62;100408.64;1816824;78;20464;-43
2021/01/26 12:17:36;;;;;;;;;;;;;;;6.92;77.99;100405.17;1812085;77;20567;-44
2021/01/26 12:20:05;;;;;;;;;;;;;;;6.91;78.32;100393.02;1817277;77;20185;-44
2021/01/26 12:22:32;;;;;;;;;;;;;;;6.90;78.56;100393.45;1819013;78;20482;-43
2021/01/26 12:25:00;;;;;;;;;;;;;;;6.89;78.72;100390.88;1811674;78;20207;-44
2021/01/26 12:27:28;;;;;;;;;;;;;;;6.89;79.04;100410.42;1812982;78;20178;-43
2021/01/26 12:29:56;;;;;;;;;;;;;;;6.87;79.24;100407.81;1812960;78;20204;-44
2021/01/26 12:32:23;;;;;;;;;;;;;;;6.86;79.45;100413.89;1814706;78;20219;-43
2021/01/26 12:34:51;;;;;;;;;;;;;;;6.87;79.67;100407.81;1814972;78;20166;-43
2021/01/26 12:37:19;;;;;;;;;;;;;;;6.88;79.81;100397.83;1810065;78;20166;-41
2021/01/26 12:39:47;;;;;;;;;;;;;;;6.91;79.89;100406.04;1812357;78;20200;-44
2021/01/26 12:42:15;;;;;;;;;;;;;;;6.91;80.03;100406.91;1816622;78;20179;-41
2021/01/26 12:44:43;;;;;;;;;;;;;;;6.96;80.30;100400.35;1812147;78;20186;-43
2021/01/26 12:47:11;;;;;;;;;;;;;;;7.03;80.41;100405.52;1815686;78;20179;-43
2021/01/26 12:49:39;;;;;;;;;;;;;;;7.14;80.39;100402.85;1814007;78;20166;-43
2021/01/26 12:52:07;;;;;;;;;;;;;;;7.23;80.25;100401.45;1816613;78;20243;-43
2021/01/26 12:54:34;;;;;;;;;;;;;;;7.30;80.06;100392.71;1811535;78;20184;-43
2021/01/26 12:57:02;;;;;;;;;;;;;;;7.33;79.86;100380.97;1814417;78;20188;-43
2021/01/26 12:59:30;;;;;;;;;;;;;;;7.33;79.76;100380.09;1815101;78;20176;-44
2021/01/26 13:02:00;;;;;;;;;;;;;;;7.29;79.76;100375.77;1815670;78;20126;-50
2021/01/26 13:04:28;;;;;;;;;;;;;;;7.24;79.81;100375.81;1814202;78;20174;-44
2021/01/26 13:06:57;;;;;;;;;;;;;;;7.17;79.93;100376.30;1814523;78;20496;-42
2021/01/26 13:09:24;;;;;;;;;;;;;;;7.10;80.10;100377.23;1809865;78;20172;-43
2021/01/26 13:11:52;;;;;;;;;;;;;;;7.05;80.48;100384.23;1810949;78;20202;-42
2021/01/26 13:14:20;;;;;;;;;;;;;;;6.97;81.59;100376.89;1810867;78;20416;-45
2021/01/26 13:16:48;;;;;;;;;;;;;;;6.87;82.18;100364.81;1811519;78;20219;-43
2021/01/26 13:19:16;;;;;;;;;;;;;;;6.80;83.00;100354.01;1815446;78;20411;-41
2021/01/26 13:21:44;;;;;;;;;;;;;;;6.73;84.06;100358.83;1820635;78;20198;-43
2021/01/26 13:24:12;;;;;;;;;;;;;;;6.67;84.45;100356.27;1817602;78;20181;-43
2021/01/26 13:26:42;;;;;;;;;;;;;;;6.59;84.92;100363.26;1832435;77;20229;-44
2021/01/26 13:29:13;;;;;;;;;;;;;;;6.52;85.67;100372.84;1803639;77;20180;-43